sensor_id;sensor_type;location;lat;lon;timestamp;P1;durP1;ratioP1;P2;durP2;ratioP2
45408;SDS011;31162;51.076;3.784;2024-03-06T00:00:47;23.95;;;21.35;;
45408;SDS011;31162;51.076;3.784;2024-03-06T00:03:13;24.95;;;21.98;;
45408;SDS011;31162;51.076;3.784;2024-03-06T00:05:39;21.77;;;19.23;;
45408;SDS011;31162;51.076;3.784;2024-03-06T00:08:04;22.60;;;19.90;;
45408;SDS011;31162;51.076;3.784;2024-03-06T00:10:30;22.88;;;20.52;;
45408;SDS011;31162;51.076;3.784;2024-03-06T00:12:56;23.13;;;20.83;;
45408;SDS011;31162;51.076;3.784;2024-03-06T00:15:21;22.25;;;19.90;;
45408;SDS011;31162;51.076;3.784;2024-03-06T00:17:47;21.40;;;19.25;;
45408;SDS011;31162;51.076;3.784;2024-03-06T00:20:13;22.02;;;19.58;;
45408;SDS011;31162;51.076;3.784;2024-03-06T00:22:39;21.35;;;19.20;;
45408;SDS011;31162;51.076;3.784;2024-03-06T00:25:05;21.00;;;18.73;;
45408;SDS011;31162;51.076;3.784;2024-03-06T00:27:31;21.92;;;19.15;;
45408;SDS011;31162;51.076;3.784;2024-03-06T00:29:56;20.83;;;18.63;;
45408;SDS011;31162;51.076;3.784;2024-03-06T00:32:22;21.33;;;18.83;;
45408;SDS011;31162;51.076;3.784;2024-03-06T00:34:48;20.17;;;18.08;;
45408;SDS011;31162;51.076;3.784;2024-03-06T00:37:14;21.63;;;18.75;;
45408;SDS011;31162;51.076;3.784;2024-03-06T00:39:40;21.33;;;18.30;;
45408;SDS011;31162;51.076;3.784;2024-03-06T00:42:05;19.75;;;17.65;;
45408;SDS011;31162;51.076;3.784;2024-03-06T00:44:33;22.55;;;18.30;;
45408;SDS011;31162;51.076;3.784;2024-03-06T00:46:59;22.00;;;18.52;;
45408;SDS011;31162;51.076;3.784;2024-03-06T00:49:25;20.58;;;17.92;;
45408;SDS011;31162;51.076;3.784;2024-03-06T00:51:51;21.60;;;18.38;;
45408;SDS011;31162;51.076;3.784;2024-03-06T00:54:16;20.77;;;17.38;;
45408;SDS011;31162;51.076;3.784;2024-03-06T00:56:42;20.00;;;17.55;;
45408;SDS011;31162;51.076;3.784;2024-03-06T00:59:08;20.38;;;17.85;;
45408;SDS011;31162;51.076;3.784;2024-03-06T01:01:33;23.27;;;19.55;;
45408;SDS011;31162;51.076;3.784;2024-03-06T01:03:59;23.52;;;18.95;;
45408;SDS011;31162;51.076;3.784;2024-03-06T01:06:25;21.70;;;19.08;;
45408;SDS011;31162;51.076;3.784;2024-03-06T01:08:50;23.38;;;19.60;;
45408;SDS011;31162;51.076;3.784;2024-03-06T01:11:16;21.60;;;19.25;;
45408;SDS011;31162;51.076;3.784;2024-03-06T01:13:41;24.15;;;19.70;;
45408;SDS011;31162;51.076;3.784;2024-03-06T01:16:07;23.63;;;19.52;;
45408;SDS011;31162;51.076;3.784;2024-03-06T01:18:33;23.75;;;19.70;;
45408;SDS011;31162;51.076;3.784;2024-03-06T01:20:59;21.70;;;19.15;;
45408;SDS011;31162;51.076;3.784;2024-03-06T01:23:24;21.17;;;18.77;;
45408;SDS011;31162;51.076;3.784;2024-03-06T01:25:50;23.05;;;18.45;;
45408;SDS011;31162;51.076;3.784;2024-03-06T01:28:16;21.85;;;18.77;;
45408;SDS011;31162;51.076;3.784;2024-03-06T01:30:42;21.98;;;18.60;;
45408;SDS011;31162;51.076;3.784;2024-03-06T01:33:08;22.98;;;18.90;;
45408;SDS011;31162;51.076;3.784;2024-03-06T01:35:34;25.17;;;20.13;;
45408;SDS011;31162;51.076;3.784;2024-03-06T01:38:00;24.63;;;19.30;;
45408;SDS011;31162;51.076;3.784;2024-03-06T01:40:26;21.98;;;17.38;;
45408;SDS011;31162;51.076;3.784;2024-03-06T01:42:54;21.35;;;18.38;;
45408;SDS011;31162;51.076;3.784;2024-03-06T01:45:19;24.92;;;19.83;;
45408;SDS011;31162;51.076;3.784;2024-03-06T01:47:45;27.73;;;21.50;;
45408;SDS011;31162;51.076;3.784;2024-03-06T01:50:11;25.00;;;20.05;;
45408;SDS011;31162;51.076;3.784;2024-03-06T01:52:37;26.10;;;20.17;;
45408;SDS011;31162;51.076;3.784;2024-03-06T01:55:05;22.85;;;19.20;;
45408;SDS011;31162;51.076;3.784;2024-03-06T01:57:32;23.20;;;19.65;;
45408;SDS011;31162;51.076;3.784;2024-03-06T01:59:59;22.63;;;18.65;;
45408;SDS011;31162;51.076;3.784;2024-03-06T02:02:26;27.13;;;20.33;;
45408;SDS011;31162;51.076;3.784;2024-03-06T02:04:53;25.98;;;20.20;;
45408;SDS011;31162;51.076;3.784;2024-03-06T02:07:19;21.83;;;18.10;;
45408;SDS011;31162;51.076;3.784;2024-03-06T02:09:45;22.73;;;18.80;;
45408;SDS011;31162;51.076;3.784;2024-03-06T02:12:11;27.55;;;19.30;;
45408;SDS011;31162;51.076;3.784;2024-03-06T02:14:38;26.65;;;19.98;;
45408;SDS011;31162;51.076;3.784;2024-03-06T02:17:04;24.15;;;19.85;;
45408;SDS011;31162;51.076;3.784;2024-03-06T02:19:42;24.00;;;18.98;;
45408;SDS011;31162;51.076;3.784;2024-03-06T02:22:08;25.63;;;19.40;;
45408;SDS011;31162;51.076;3.784;2024-03-06T02:24:35;24.55;;;18.80;;
45408;SDS011;31162;51.076;3.784;2024-03-06T02:27:02;26.95;;;19.17;;
45408;SDS011;31162;51.076;3.784;2024-03-06T02:29:31;23.65;;;19.13;;
45408;SDS011;31162;51.076;3.784;2024-03-06T02:31:58;25.33;;;19.85;;
45408;SDS011;31162;51.076;3.784;2024-03-06T02:34:23;25.92;;;19.27;;
45408;SDS011;31162;51.076;3.784;2024-03-06T02:36:50;24.20;;;18.80;;
45408;SDS011;31162;51.076;3.784;2024-03-06T02:39:17;25.17;;;19.38;;
45408;SDS011;31162;51.076;3.784;2024-03-06T02:41:42;22.73;;;18.48;;
45408;SDS011;31162;51.076;3.784;2024-03-06T02:44:08;24.58;;;18.25;;
45408;SDS011;31162;51.076;3.784;2024-03-06T02:46:34;24.75;;;19.15;;
45408;SDS011;31162;51.076;3.784;2024-03-06T02:49:00;24.95;;;19.45;;
45408;SDS011;31162;51.076;3.784;2024-03-06T02:51:25;25.30;;;19.00;;
45408;SDS011;31162;51.076;3.784;2024-03-06T02:53:51;23.27;;;18.85;;
45408;SDS011;31162;51.076;3.784;2024-03-06T02:56:18;23.60;;;18.92;;
45408;SDS011;31162;51.076;3.784;2024-03-06T02:58:44;22.73;;;18.98;;
45408;SDS011;31162;51.076;3.784;2024-03-06T03:01:10;25.88;;;19.45;;
45408;SDS011;31162;51.076;3.784;2024-03-06T03:03:39;23.83;;;18.23;;
45408;SDS011;31162;51.076;3.784;2024-03-06T03:06:05;25.30;;;17.75;;
45408;SDS011;31162;51.076;3.784;2024-03-06T03:08:31;22.92;;;17.92;;
45408;SDS011;31162;51.076;3.784;2024-03-06T03:10:57;22.55;;;18.40;;
45408;SDS011;31162;51.076;3.784;2024-03-06T03:13:22;24.23;;;18.85;;
45408;SDS011;31162;51.076;3.784;2024-03-06T03:15:48;23.95;;;18.67;;
45408;SDS011;31162;51.076;3.784;2024-03-06T03:18:13;25.50;;;19.42;;
45408;SDS011;31162;51.076;3.784;2024-03-06T03:20:40;25.05;;;18.40;;
45408;SDS011;31162;51.076;3.784;2024-03-06T03:23:05;26.58;;;19.63;;
45408;SDS011;31162;51.076;3.784;2024-03-06T03:25:36;24.05;;;19.02;;
45408;SDS011;31162;51.076;3.784;2024-03-06T03:28:02;26.98;;;18.58;;
45408;SDS011;31162;51.076;3.784;2024-03-06T03:30:28;25.02;;;18.83;;
45408;SDS011;31162;51.076;3.784;2024-03-06T03:32:54;27.60;;;20.13;;
45408;SDS011;31162;51.076;3.784;2024-03-06T03:35:20;24.80;;;18.98;;
45408;SDS011;31162;51.076;3.784;2024-03-06T03:37:50;26.23;;;20.02;;
45408;SDS011;31162;51.076;3.784;2024-03-06T03:40:18;29.00;;;20.35;;
45408;SDS011;31162;51.076;3.784;2024-03-06T03:42:44;26.55;;;18.60;;
45408;SDS011;31162;51.076;3.784;2024-03-06T03:45:10;28.02;;;20.50;;
45408;SDS011;31162;51.076;3.784;2024-03-06T03:47:36;27.40;;;20.30;;
45408;SDS011;31162;51.076;3.784;2024-03-06T03:50:02;29.30;;;21.67;;
45408;SDS011;31162;51.076;3.784;2024-03-06T03:52:29;30.92;;;21.83;;
45408;SDS011;31162;51.076;3.784;2024-03-06T03:54:55;31.05;;;21.95;;
45408;SDS011;31162;51.076;3.784;2024-03-06T03:57:20;31.65;;;23.15;;
45408;SDS011;31162;51.076;3.784;2024-03-06T03:59:46;29.63;;;21.88;;
45408;SDS011;31162;51.076;3.784;2024-03-06T04:02:12;31.63;;;21.98;;
45408;SDS011;31162;51.076;3.784;2024-03-06T04:04:37;28.33;;;21.48;;
45408;SDS011;31162;51.076;3.784;2024-03-06T04:07:03;30.05;;;22.00;;
45408;SDS011;31162;51.076;3.784;2024-03-06T04:09:30;29.05;;;21.63;;
45408;SDS011;31162;51.076;3.784;2024-03-06T04:11:57;31.30;;;20.98;;
45408;SDS011;31162;51.076;3.784;2024-03-06T04:14:23;32.58;;;21.20;;
45408;SDS011;31162;51.076;3.784;2024-03-06T04:16:49;34.47;;;23.00;;
45408;SDS011;31162;51.076;3.784;2024-03-06T04:19:15;31.85;;;21.83;;
45408;SDS011;31162;51.076;3.784;2024-03-06T04:21:44;31.17;;;21.45;;
45408;SDS011;31162;51.076;3.784;2024-03-06T04:24:09;32.92;;;20.98;;
45408;SDS011;31162;51.076;3.784;2024-03-06T04:26:35;27.60;;;19.77;;
45408;SDS011;31162;51.076;3.784;2024-03-06T04:29:01;35.13;;;23.33;;
45408;SDS011;31162;51.076;3.784;2024-03-06T04:31:27;73.55;;;49.35;;
45408;SDS011;31162;51.076;3.784;2024-03-06T04:33:53;32.00;;;22.77;;
45408;SDS011;31162;51.076;3.784;2024-03-06T04:36:19;35.10;;;24.98;;
45408;SDS011;31162;51.076;3.784;2024-03-06T04:38:45;30.10;;;21.63;;
45408;SDS011;31162;51.076;3.784;2024-03-06T04:41:11;36.00;;;26.40;;
45408;SDS011;31162;51.076;3.784;2024-03-06T04:43:37;40.28;;;28.23;;
45408;SDS011;31162;51.076;3.784;2024-03-06T04:46:03;41.42;;;29.23;;
45408;SDS011;31162;51.076;3.784;2024-03-06T04:48:29;32.83;;;21.75;;
45408;SDS011;31162;51.076;3.784;2024-03-06T04:50:54;30.77;;;21.58;;
45408;SDS011;31162;51.076;3.784;2024-03-06T04:53:20;32.97;;;22.25;;
45408;SDS011;31162;51.076;3.784;2024-03-06T04:55:46;33.05;;;22.02;;
45408;SDS011;31162;51.076;3.784;2024-03-06T04:58:12;28.02;;;21.23;;
45408;SDS011;31162;51.076;3.784;2024-03-06T05:00:38;27.85;;;19.80;;
45408;SDS011;31162;51.076;3.784;2024-03-06T05:03:03;30.75;;;21.15;;
45408;SDS011;31162;51.076;3.784;2024-03-06T05:05:30;34.45;;;22.65;;
45408;SDS011;31162;51.076;3.784;2024-03-06T05:07:57;34.10;;;22.75;;
45408;SDS011;31162;51.076;3.784;2024-03-06T05:10:22;35.47;;;22.13;;
45408;SDS011;31162;51.076;3.784;2024-03-06T05:12:48;35.75;;;22.73;;
45408;SDS011;31162;51.076;3.784;2024-03-06T05:15:14;37.47;;;23.25;;
45408;SDS011;31162;51.076;3.784;2024-03-06T05:17:39;43.85;;;24.13;;
45408;SDS011;31162;51.076;3.784;2024-03-06T05:20:05;62.53;;;26.13;;
45408;SDS011;31162;51.076;3.784;2024-03-06T05:22:31;45.60;;;25.10;;
45408;SDS011;31162;51.076;3.784;2024-03-06T05:24:57;46.78;;;24.58;;
45408;SDS011;31162;51.076;3.784;2024-03-06T05:27:23;42.90;;;24.40;;
45408;SDS011;31162;51.076;3.784;2024-03-06T05:29:52;38.63;;;24.02;;
45408;SDS011;31162;51.076;3.784;2024-03-06T05:32:18;40.40;;;23.67;;
45408;SDS011;31162;51.076;3.784;2024-03-06T05:34:44;46.85;;;25.40;;
45408;SDS011;31162;51.076;3.784;2024-03-06T05:37:10;42.20;;;23.80;;
45408;SDS011;31162;51.076;3.784;2024-03-06T05:39:35;44.60;;;23.30;;
45408;SDS011;31162;51.076;3.784;2024-03-06T05:42:03;38.90;;;22.45;;
45408;SDS011;31162;51.076;3.784;2024-03-06T05:44:30;37.35;;;21.10;;
45408;SDS011;31162;51.076;3.784;2024-03-06T05:47:00;32.00;;;21.13;;
45408;SDS011;31162;51.076;3.784;2024-03-06T05:49:27;33.38;;;20.65;;
45408;SDS011;31162;51.076;3.784;2024-03-06T05:51:53;33.92;;;20.63;;
45408;SDS011;31162;51.076;3.784;2024-03-06T05:54:20;39.78;;;22.80;;
45408;SDS011;31162;51.076;3.784;2024-03-06T05:56:47;34.90;;;22.52;;
45408;SDS011;31162;51.076;3.784;2024-03-06T05:59:14;37.50;;;23.08;;
45408;SDS011;31162;51.076;3.784;2024-03-06T06:01:40;35.33;;;21.75;;
45408;SDS011;31162;51.076;3.784;2024-03-06T06:04:07;35.80;;;21.75;;
45408;SDS011;31162;51.076;3.784;2024-03-06T06:06:34;38.13;;;22.10;;
45408;SDS011;31162;51.076;3.784;2024-03-06T06:09:00;38.47;;;23.75;;
45408;SDS011;31162;51.076;3.784;2024-03-06T06:11:26;46.20;;;24.95;;
45408;SDS011;31162;51.076;3.784;2024-03-06T06:13:51;42.20;;;24.60;;
45408;SDS011;31162;51.076;3.784;2024-03-06T06:16:17;42.97;;;23.65;;
45408;SDS011;31162;51.076;3.784;2024-03-06T06:18:43;41.60;;;23.30;;
45408;SDS011;31162;51.076;3.784;2024-03-06T06:21:08;39.72;;;23.88;;
45408;SDS011;31162;51.076;3.784;2024-03-06T06:23:34;37.10;;;23.80;;
45408;SDS011;31162;51.076;3.784;2024-03-06T06:26:00;40.22;;;24.23;;
45408;SDS011;31162;51.076;3.784;2024-03-06T06:28:26;43.92;;;24.63;;
45408;SDS011;31162;51.076;3.784;2024-03-06T06:30:52;45.20;;;24.20;;
45408;SDS011;31162;51.076;3.784;2024-03-06T06:33:18;47.20;;;26.25;;
45408;SDS011;31162;51.076;3.784;2024-03-06T06:35:44;46.17;;;25.40;;
45408;SDS011;31162;51.076;3.784;2024-03-06T06:38:10;51.75;;;26.80;;
45408;SDS011;31162;51.076;3.784;2024-03-06T06:40:36;60.22;;;28.92;;
45408;SDS011;31162;51.076;3.784;2024-03-06T06:43:01;59.47;;;30.90;;
45408;SDS011;31162;51.076;3.784;2024-03-06T06:45:27;61.53;;;32.95;;
45408;SDS011;31162;51.076;3.784;2024-03-06T06:47:53;63.97;;;32.83;;
45408;SDS011;31162;51.076;3.784;2024-03-06T06:50:18;66.57;;;32.55;;
45408;SDS011;31162;51.076;3.784;2024-03-06T06:52:47;61.85;;;34.53;;
45408;SDS011;31162;51.076;3.784;2024-03-06T06:55:13;54.38;;;29.77;;
45408;SDS011;31162;51.076;3.784;2024-03-06T06:57:39;57.65;;;30.55;;
45408;SDS011;31162;51.076;3.784;2024-03-06T07:00:05;48.92;;;29.15;;
45408;SDS011;31162;51.076;3.784;2024-03-06T07:02:39;54.03;;;31.98;;
45408;SDS011;31162;51.076;3.784;2024-03-06T07:05:06;50.53;;;31.60;;
45408;SDS011;31162;51.076;3.784;2024-03-06T07:07:33;49.85;;;31.13;;
45408;SDS011;31162;51.076;3.784;2024-03-06T07:09:59;42.70;;;29.30;;
45408;SDS011;31162;51.076;3.784;2024-03-06T07:12:25;39.40;;;27.77;;
45408;SDS011;31162;51.076;3.784;2024-03-06T07:14:50;37.08;;;27.15;;
45408;SDS011;31162;51.076;3.784;2024-03-06T07:17:16;32.28;;;25.75;;
45408;SDS011;31162;51.076;3.784;2024-03-06T07:19:41;32.45;;;26.73;;
45408;SDS011;31162;51.076;3.784;2024-03-06T07:22:07;31.52;;;25.40;;
45408;SDS011;31162;51.076;3.784;2024-03-06T07:24:33;30.52;;;25.92;;
45408;SDS011;31162;51.076;3.784;2024-03-06T07:26:59;26.80;;;23.55;;
45408;SDS011;31162;51.076;3.784;2024-03-06T07:29:26;26.83;;;23.92;;
45408;SDS011;31162;51.076;3.784;2024-03-06T07:31:52;27.60;;;24.80;;
45408;SDS011;31162;51.076;3.784;2024-03-06T07:34:18;27.60;;;24.85;;
45408;SDS011;31162;51.076;3.784;2024-03-06T07:36:46;30.98;;;27.88;;
45408;SDS011;31162;51.076;3.784;2024-03-06T07:39:12;30.88;;;27.75;;
45408;SDS011;31162;51.076;3.784;2024-03-06T07:41:40;29.73;;;26.58;;
45408;SDS011;31162;51.076;3.784;2024-03-06T07:44:05;30.70;;;27.40;;
45408;SDS011;31162;51.076;3.784;2024-03-06T07:46:31;31.23;;;27.92;;
45408;SDS011;31162;51.076;3.784;2024-03-06T07:48:57;29.48;;;26.13;;
45408;SDS011;31162;51.076;3.784;2024-03-06T07:51:22;31.90;;;25.65;;
45408;SDS011;31162;51.076;3.784;2024-03-06T07:53:49;32.60;;;26.35;;
45408;SDS011;31162;51.076;3.784;2024-03-06T07:56:15;33.45;;;28.23;;
45408;SDS011;31162;51.076;3.784;2024-03-06T07:58:41;32.03;;;26.85;;
45408;SDS011;31162;51.076;3.784;2024-03-06T08:01:07;30.38;;;26.15;;
45408;SDS011;31162;51.076;3.784;2024-03-06T08:03:33;35.38;;;26.48;;
45408;SDS011;31162;51.076;3.784;2024-03-06T08:05:59;36.63;;;26.13;;
45408;SDS011;31162;51.076;3.784;2024-03-06T08:08:25;36.90;;;27.50;;
45408;SDS011;31162;51.076;3.784;2024-03-06T08:10:51;40.25;;;28.20;;
45408;SDS011;31162;51.076;3.784;2024-03-06T08:13:16;44.03;;;29.33;;
45408;SDS011;31162;51.076;3.784;2024-03-06T08:15:44;41.05;;;28.02;;
45408;SDS011;31162;51.076;3.784;2024-03-06T08:18:09;48.83;;;30.20;;
45408;SDS011;31162;51.076;3.784;2024-03-06T08:20:36;51.22;;;30.13;;
45408;SDS011;31162;51.076;3.784;2024-03-06T08:23:02;49.40;;;29.90;;
45408;SDS011;31162;51.076;3.784;2024-03-06T08:25:28;52.65;;;29.88;;
45408;SDS011;31162;51.076;3.784;2024-03-06T08:27:53;57.63;;;30.02;;
45408;SDS011;31162;51.076;3.784;2024-03-06T08:30:19;53.03;;;29.58;;
45408;SDS011;31162;51.076;3.784;2024-03-06T08:32:45;49.78;;;29.90;;
45408;SDS011;31162;51.076;3.784;2024-03-06T08:35:11;53.42;;;29.05;;
45408;SDS011;31162;51.076;3.784;2024-03-06T08:37:38;58.90;;;29.40;;
45408;SDS011;31162;51.076;3.784;2024-03-06T08:40:05;56.13;;;28.15;;
45408;SDS011;31162;51.076;3.784;2024-03-06T08:42:39;57.72;;;28.60;;
45408;SDS011;31162;51.076;3.784;2024-03-06T08:45:14;55.58;;;29.17;;
45408;SDS011;31162;51.076;3.784;2024-03-06T08:47:41;55.92;;;28.88;;
45408;SDS011;31162;51.076;3.784;2024-03-06T08:50:07;59.20;;;30.50;;
45408;SDS011;31162;51.076;3.784;2024-03-06T08:52:34;59.63;;;29.80;;
45408;SDS011;31162;51.076;3.784;2024-03-06T08:55:00;60.55;;;29.80;;
45408;SDS011;31162;51.076;3.784;2024-03-06T08:57:26;56.28;;;29.58;;
45408;SDS011;31162;51.076;3.784;2024-03-06T08:59:53;59.20;;;31.92;;
45408;SDS011;31162;51.076;3.784;2024-03-06T09:02:19;54.20;;;29.42;;
45408;SDS011;31162;51.076;3.784;2024-03-06T09:04:45;56.38;;;30.42;;
45408;SDS011;31162;51.076;3.784;2024-03-06T09:07:12;61.65;;;32.33;;
45408;SDS011;31162;51.076;3.784;2024-03-06T09:09:38;52.15;;;29.83;;
45408;SDS011;31162;51.076;3.784;2024-03-06T09:12:04;64.75;;;32.45;;
45408;SDS011;31162;51.076;3.784;2024-03-06T09:14:37;60.10;;;32.40;;
45408;SDS011;31162;51.076;3.784;2024-03-06T09:17:04;53.45;;;30.58;;
45408;SDS011;31162;51.076;3.784;2024-03-06T09:19:31;56.25;;;30.02;;
45408;SDS011;31162;51.076;3.784;2024-03-06T09:21:57;52.25;;;30.27;;
45408;SDS011;31162;51.076;3.784;2024-03-06T09:24:23;49.53;;;30.40;;
45408;SDS011;31162;51.076;3.784;2024-03-06T09:26:53;52.92;;;33.65;;
45408;SDS011;31162;51.076;3.784;2024-03-06T09:29:18;50.25;;;29.75;;
45408;SDS011;31162;51.076;3.784;2024-03-06T09:31:45;52.78;;;30.77;;
45408;SDS011;31162;51.076;3.784;2024-03-06T09:34:11;46.08;;;30.35;;
45408;SDS011;31162;51.076;3.784;2024-03-06T09:36:40;46.20;;;28.63;;
45408;SDS011;31162;51.076;3.784;2024-03-06T09:39:15;50.45;;;29.15;;
45408;SDS011;31162;51.076;3.784;2024-03-06T09:41:43;40.83;;;27.58;;
45408;SDS011;31162;51.076;3.784;2024-03-06T09:44:09;40.50;;;27.40;;
45408;SDS011;31162;51.076;3.784;2024-03-06T09:46:35;42.78;;;29.15;;
45408;SDS011;31162;51.076;3.784;2024-03-06T09:49:01;36.92;;;27.48;;
45408;SDS011;31162;51.076;3.784;2024-03-06T09:51:27;41.92;;;27.33;;
45408;SDS011;31162;51.076;3.784;2024-03-06T09:53:53;39.50;;;27.33;;
45408;SDS011;31162;51.076;3.784;2024-03-06T09:56:20;38.63;;;27.00;;
45408;SDS011;31162;51.076;3.784;2024-03-06T09:58:46;39.47;;;27.75;;
45408;SDS011;31162;51.076;3.784;2024-03-06T10:01:12;35.63;;;24.77;;
45408;SDS011;31162;51.076;3.784;2024-03-06T10:03:39;36.42;;;25.63;;
45408;SDS011;31162;51.076;3.784;2024-03-06T10:06:08;33.03;;;25.10;;
45408;SDS011;31162;51.076;3.784;2024-03-06T10:08:34;34.45;;;24.50;;
45408;SDS011;31162;51.076;3.784;2024-03-06T10:11:02;33.40;;;24.73;;
45408;SDS011;31162;51.076;3.784;2024-03-06T10:13:28;31.63;;;24.13;;
45408;SDS011;31162;51.076;3.784;2024-03-06T10:16:01;29.23;;;23.15;;
45408;SDS011;31162;51.076;3.784;2024-03-06T10:18:29;28.15;;;21.95;;
45408;SDS011;31162;51.076;3.784;2024-03-06T10:20:55;28.40;;;22.58;;
45408;SDS011;31162;51.076;3.784;2024-03-06T10:23:22;31.88;;;23.40;;
45408;SDS011;31162;51.076;3.784;2024-03-06T10:25:48;29.50;;;22.17;;
45408;SDS011;31162;51.076;3.784;2024-03-06T10:28:21;27.05;;;21.13;;
45408;SDS011;31162;51.076;3.784;2024-03-06T10:30:48;27.15;;;21.73;;
45408;SDS011;31162;51.076;3.784;2024-03-06T10:33:16;27.13;;;22.45;;
45408;SDS011;31162;51.076;3.784;2024-03-06T10:35:45;34.10;;;27.83;;
45408;SDS011;31162;51.076;3.784;2024-03-06T10:38:13;24.75;;;20.00;;
45408;SDS011;31162;51.076;3.784;2024-03-06T10:40:42;26.02;;;20.88;;
45408;SDS011;31162;51.076;3.784;2024-03-06T10:43:09;25.73;;;20.50;;
45408;SDS011;31162;51.076;3.784;2024-03-06T10:45:48;26.08;;;20.48;;
45408;SDS011;31162;51.076;3.784;2024-03-06T10:48:25;25.05;;;19.77;;
45408;SDS011;31162;51.076;3.784;2024-03-06T10:50:53;26.88;;;19.63;;
45408;SDS011;31162;51.076;3.784;2024-03-06T10:53:20;21.50;;;18.52;;
45408;SDS011;31162;51.076;3.784;2024-03-06T10:55:48;21.70;;;17.75;;
45408;SDS011;31162;51.076;3.784;2024-03-06T10:58:15;20.65;;;17.67;;
45408;SDS011;31162;51.076;3.784;2024-03-06T11:00:45;19.35;;;17.02;;
45408;SDS011;31162;51.076;3.784;2024-03-06T11:03:12;19.05;;;17.05;;
45408;SDS011;31162;51.076;3.784;2024-03-06T11:05:42;19.05;;;16.75;;
45408;SDS011;31162;51.076;3.784;2024-03-06T11:08:11;17.92;;;15.82;;
45408;SDS011;31162;51.076;3.784;2024-03-06T11:10:40;18.98;;;15.73;;
45408;SDS011;31162;51.076;3.784;2024-03-06T11:13:25;18.55;;;16.65;;
45408;SDS011;31162;51.076;3.784;2024-03-06T11:15:52;20.73;;;15.98;;
45408;SDS011;31162;51.076;3.784;2024-03-06T11:20:58;16.55;;;14.95;;
45408;SDS011;31162;51.076;3.784;2024-03-06T11:26:42;14.38;;;12.98;;
45408;SDS011;31162;51.076;3.784;2024-03-06T11:29:08;15.07;;;13.45;;
45408;SDS011;31162;51.076;3.784;2024-03-06T11:31:34;14.07;;;12.68;;
45408;SDS011;31162;51.076;3.784;2024-03-06T11:34:02;14.32;;;12.82;;
45408;SDS011;31162;51.076;3.784;2024-03-06T11:36:29;15.65;;;14.05;;
45408;SDS011;31162;51.076;3.784;2024-03-06T11:41:25;13.18;;;11.88;;
45408;SDS011;31162;51.076;3.784;2024-03-06T11:43:52;12.73;;;11.48;;
45408;SDS011;31162;51.076;3.784;2024-03-06T11:46:19;13.00;;;11.60;;
45408;SDS011;31162;51.076;3.784;2024-03-06T11:48:55;14.00;;;11.85;;
45408;SDS011;31162;51.076;3.784;2024-03-06T11:51:23;13.65;;;12.23;;
45408;SDS011;31162;51.076;3.784;2024-03-06T11:53:50;12.45;;;10.60;;
45408;SDS011;31162;51.076;3.784;2024-03-06T11:56:16;12.02;;;10.02;;
45408;SDS011;31162;51.076;3.784;2024-03-06T11:58:44;11.40;;;10.15;;
45408;SDS011;31162;51.076;3.784;2024-03-06T12:01:11;11.07;;;9.95;;
45408;SDS011;31162;51.076;3.784;2024-03-06T12:03:37;12.25;;;10.93;;
45408;SDS011;31162;51.076;3.784;2024-03-06T12:06:02;11.68;;;10.48;;
45408;SDS011;31162;51.076;3.784;2024-03-06T12:08:28;11.95;;;10.75;;
45408;SDS011;31162;51.076;3.784;2024-03-06T12:10:54;11.30;;;10.05;;
45408;SDS011;31162;51.076;3.784;2024-03-06T12:13:22;11.60;;;10.40;;
45408;SDS011;31162;51.076;3.784;2024-03-06T12:15:49;10.48;;;9.48;;
45408;SDS011;31162;51.076;3.784;2024-03-06T12:18:16;11.15;;;9.98;;
45408;SDS011;31162;51.076;3.784;2024-03-06T12:20:43;8.75;;;7.85;;
45408;SDS011;31162;51.076;3.784;2024-03-06T12:23:18;7.00;;;6.28;;
45408;SDS011;31162;51.076;3.784;2024-03-06T12:25:46;8.07;;;7.25;;
45408;SDS011;31162;51.076;3.784;2024-03-06T12:28:12;10.68;;;8.95;;
45408;SDS011;31162;51.076;3.784;2024-03-06T12:30:41;9.32;;;8.43;;
45408;SDS011;31162;51.076;3.784;2024-03-06T12:33:09;8.75;;;7.85;;
45408;SDS011;31162;51.076;3.784;2024-03-06T12:35:39;9.60;;;8.20;;
45408;SDS011;31162;51.076;3.784;2024-03-06T12:38:12;9.82;;;8.35;;
45408;SDS011;31162;51.076;3.784;2024-03-06T12:40:42;10.88;;;8.30;;
45408;SDS011;31162;51.076;3.784;2024-03-06T12:43:08;9.05;;;7.53;;
45408;SDS011;31162;51.076;3.784;2024-03-06T12:45:34;7.90;;;6.95;;
45408;SDS011;31162;51.076;3.784;2024-03-06T12:48:01;8.32;;;6.00;;
45408;SDS011;31162;51.076;3.784;2024-03-06T12:50:29;7.00;;;6.30;;
45408;SDS011;31162;51.076;3.784;2024-03-06T12:52:55;7.72;;;6.95;;
45408;SDS011;31162;51.076;3.784;2024-03-06T12:55:21;13.68;;;10.27;;
45408;SDS011;31162;51.076;3.784;2024-03-06T12:57:46;13.15;;;11.15;;
45408;SDS011;31162;51.076;3.784;2024-03-06T13:00:12;13.50;;;10.73;;
45408;SDS011;31162;51.076;3.784;2024-03-06T13:02:44;13.90;;;10.88;;
45408;SDS011;31162;51.076;3.784;2024-03-06T13:05:10;12.43;;;9.77;;
45408;SDS011;31162;51.076;3.784;2024-03-06T13:07:36;10.57;;;8.63;;
45408;SDS011;31162;51.076;3.784;2024-03-06T13:10:05;11.65;;;9.63;;
45408;SDS011;31162;51.076;3.784;2024-03-06T13:12:31;11.50;;;9.68;;
45408;SDS011;31162;51.076;3.784;2024-03-06T13:14:58;12.30;;;9.02;;
45408;SDS011;31162;51.076;3.784;2024-03-06T13:17:23;12.45;;;9.35;;
45408;SDS011;31162;51.076;3.784;2024-03-06T13:19:49;9.23;;;8.25;;
45408;SDS011;31162;51.076;3.784;2024-03-06T13:22:14;8.73;;;7.13;;
45408;SDS011;31162;51.076;3.784;2024-03-06T13:24:40;8.60;;;7.68;;
45408;SDS011;31162;51.076;3.784;2024-03-06T13:27:06;8.18;;;7.35;;
45408;SDS011;31162;51.076;3.784;2024-03-06T13:29:33;7.80;;;6.97;;
45408;SDS011;31162;51.076;3.784;2024-03-06T13:31:58;6.82;;;6.13;;
45408;SDS011;31162;51.076;3.784;2024-03-06T13:34:24;6.97;;;6.00;;
45408;SDS011;31162;51.076;3.784;2024-03-06T13:36:50;9.65;;;6.70;;
45408;SDS011;31162;51.076;3.784;2024-03-06T13:39:15;9.38;;;6.57;;
45408;SDS011;31162;51.076;3.784;2024-03-06T13:41:41;7.00;;;4.78;;
45408;SDS011;31162;51.076;3.784;2024-03-06T13:44:06;7.30;;;5.80;;
45408;SDS011;31162;51.076;3.784;2024-03-06T13:46:33;5.57;;;5.03;;
45408;SDS011;31162;51.076;3.784;2024-03-06T13:48:58;5.40;;;4.90;;
45408;SDS011;31162;51.076;3.784;2024-03-06T13:51:25;4.97;;;4.53;;
45408;SDS011;31162;51.076;3.784;2024-03-06T13:53:51;5.22;;;4.80;;
45408;SDS011;31162;51.076;3.784;2024-03-06T13:56:16;6.30;;;5.70;;
45408;SDS011;31162;51.076;3.784;2024-03-06T13:58:43;6.22;;;5.65;;
45408;SDS011;31162;51.076;3.784;2024-03-06T14:01:09;5.68;;;4.93;;
45408;SDS011;31162;51.076;3.784;2024-03-06T14:03:34;5.82;;;4.50;;
45408;SDS011;31162;51.076;3.784;2024-03-06T14:06:02;8.02;;;6.00;;
45408;SDS011;31162;51.076;3.784;2024-03-06T14:08:28;6.50;;;5.82;;
45408;SDS011;31162;51.076;3.784;2024-03-06T14:10:54;6.85;;;6.25;;
45408;SDS011;31162;51.076;3.784;2024-03-06T14:13:20;9.13;;;6.10;;
45408;SDS011;31162;51.076;3.784;2024-03-06T14:15:45;6.88;;;6.00;;
45408;SDS011;31162;51.076;3.784;2024-03-06T14:18:13;7.63;;;6.25;;
45408;SDS011;31162;51.076;3.784;2024-03-06T14:20:39;6.50;;;5.85;;
45408;SDS011;31162;51.076;3.784;2024-03-06T14:23:04;9.75;;;8.10;;
45408;SDS011;31162;51.076;3.784;2024-03-06T14:25:30;7.03;;;6.30;;
45408;SDS011;31162;51.076;3.784;2024-03-06T14:27:59;6.78;;;5.45;;
45408;SDS011;31162;51.076;3.784;2024-03-06T14:30:26;6.32;;;5.72;;